createdAt,value
2023-05-21T00:02:21.570Z,15.93
2023-05-21T00:04:49.734Z,15.94
2023-05-21T00:07:18.982Z,15.96
2023-05-21T00:09:47.287Z,15.96
2023-05-21T00:12:15.470Z,15.94
2023-05-21T00:14:43.582Z,15.94
2023-05-21T00:17:11.741Z,15.94
2023-05-21T00:19:40.533Z,15.93
2023-05-21T00:22:09.502Z,15.93
2023-05-21T00:24:37.683Z,15.93
2023-05-21T00:27:05.994Z,15.94
2023-05-21T00:29:33.951Z,15.96
2023-05-21T00:32:02.107Z,15.96
2023-05-21T00:34:30.341Z,15.96
2023-05-21T00:36:58.601Z,15.95
2023-05-21T00:39:26.742Z,15.94
2023-05-21T00:41:57.161Z,15.95
2023-05-21T00:44:25.672Z,15.97
2023-05-21T00:46:53.933Z,16.00
2023-05-21T00:49:24.701Z,15.95
2023-05-21T00:51:53.164Z,16.05
2023-05-21T00:54:22.084Z,16.09
2023-05-21T00:56:50.842Z,16.12
2023-05-21T00:59:19.461Z,16.13
2023-05-21T01:02:48.043Z,16.12
2023-05-21T01:06:40.027Z,16.10
2023-05-21T01:09:26.666Z,16.19
2023-05-21T01:11:56.522Z,16.24
2023-05-21T01:14:25.574Z,16.28
2023-05-21T01:16:53.920Z,16.32
2023-05-21T01:19:44.562Z,16.36
2023-05-21T01:22:14.413Z,16.41
2023-05-21T01:24:47.778Z,16.44
2023-05-21T01:27:16.206Z,16.44
2023-05-21T01:30:44.853Z,16.46
2023-05-21T01:33:41.945Z,16.47
2023-05-21T01:36:16.080Z,16.47
2023-05-21T01:39:47.724Z,16.47
2023-05-21T01:43:13.968Z,16.47
2023-05-21T01:45:44.222Z,16.45
2023-05-21T01:48:13.719Z,16.51
2023-05-21T01:50:42.615Z,16.52
2023-05-21T01:53:10.845Z,16.52
2023-05-21T01:55:42.109Z,16.51
2023-05-21T01:58:10.645Z,16.51
2023-05-21T02:01:39.528Z,16.48
2023-05-21T02:05:49.522Z,16.47
2023-05-21T02:08:38.700Z,16.43
2023-05-21T02:12:06.859Z,16.43
2023-05-21T02:14:35.099Z,16.39
2023-05-21T02:17:03.227Z,16.40
2023-05-21T02:19:39.814Z,16.41
2023-05-21T02:22:07.980Z,16.41
2023-05-21T02:24:36.458Z,16.43
2023-05-21T02:27:06.430Z,16.43
2023-05-21T02:29:34.612Z,16.44
2023-05-21T02:32:03.124Z,16.46
2023-05-21T02:34:32.380Z,16.47
2023-05-21T02:37:01.828Z,16.47
2023-05-21T02:40:30.581Z,16.47
2023-05-21T02:43:07.466Z,16.45
2023-05-21T02:45:36.107Z,16.41
2023-05-21T02:48:04.406Z,16.43
2023-05-21T02:51:34.129Z,16.41
2023-05-21T02:54:23.163Z,16.37
2023-05-21T02:56:51.642Z,16.37
2023-05-21T02:59:19.650Z,16.36
2023-05-21T03:02:28.388Z,16.35
2023-05-21T03:04:56.543Z,16.32
2023-05-21T03:07:24.844Z,16.30
2023-05-21T03:09:52.969Z,16.28
2023-05-21T03:12:21.057Z,16.27
2023-05-21T03:14:51.460Z,16.26
2023-05-21T03:17:22.354Z,16.25
2023-05-21T03:19:50.507Z,16.22
2023-05-21T03:22:20.201Z,16.23
2023-05-21T03:24:48.776Z,16.19
2023-05-21T03:27:17.049Z,16.23
2023-05-21T03:29:46.104Z,16.20
2023-05-21T03:32:14.672Z,16.17
2023-05-21T03:34:43.253Z,16.14
2023-05-21T03:37:11.288Z,16.12
2023-05-21T03:39:39.562Z,16.10
2023-05-21T03:42:07.932Z,16.09
2023-05-21T03:44:43.157Z,16.09
2023-05-21T03:47:29.825Z,16.10
2023-05-21T03:49:58.292Z,16.09
2023-05-21T03:53:27.038Z,16.08
2023-05-21T03:56:32.157Z,16.06
2023-05-21T03:59:00.169Z,16.02
2023-05-21T04:01:28.653Z,16.02
2023-05-21T04:03:57.296Z,16.02
2023-05-21T04:06:25.580Z,16.02
2023-05-21T04:08:53.800Z,16.03
2023-05-21T04:11:22.656Z,16.05
2023-05-21T04:13:51.739Z,16.08
2023-05-21T04:16:19.804Z,16.11
2023-05-21T04:18:48.416Z,16.12
2023-05-21T04:21:17.013Z,16.16
2023-05-21T04:24:46.056Z,16.22
2023-05-21T04:27:39.859Z,16.21
2023-05-21T04:30:08.797Z,16.33
2023-05-21T04:32:38.565Z,16.34
2023-05-21T04:35:08.363Z,16.36
2023-05-21T04:37:36.452Z,16.40
2023-05-21T04:40:04.960Z,16.45
2023-05-21T04:43:33.714Z,16.54
2023-05-21T04:47:02.309Z,16.73
2023-05-21T04:49:30.973Z,16.86
2023-05-21T04:51:59.282Z,16.98
2023-05-21T04:54:27.766Z,17.10
2023-05-21T04:56:56.068Z,17.19
2023-05-21T04:59:24.334Z,17.24
2023-05-21T05:02:32.293Z,17.25
2023-05-21T05:05:01.644Z,17.26
2023-05-21T05:08:30.140Z,17.33
2023-05-21T05:11:38.573Z,17.48
2023-05-21T05:15:07.294Z,17.55
2023-05-21T05:17:39.922Z,17.67
2023-05-21T05:20:10.060Z,17.82
2023-05-21T05:23:02.738Z,17.98
2023-05-21T05:25:30.940Z,18.13
2023-05-21T05:27:59.335Z,18.25
2023-05-21T05:30:27.588Z,18.35
2023-05-21T05:32:57.392Z,18.43
2023-05-21T05:35:25.950Z,18.50
2023-05-21T05:37:53.934Z,18.59
2023-05-21T05:40:22.052Z,18.69
2023-05-21T05:42:52.682Z,18.78
2023-05-21T05:45:21.197Z,18.85
2023-05-21T05:47:49.278Z,18.93
2023-05-21T05:50:17.353Z,19.02
2023-05-21T05:52:45.446Z,19.09
2023-05-21T05:55:13.587Z,19.21
2023-05-21T05:57:43.727Z,19.39
2023-05-21T06:00:15.062Z,19.63
2023-05-21T06:02:45.178Z,19.86
2023-05-21T06:05:33.228Z,20.01
2023-05-21T06:08:01.600Z,20.11
2023-05-21T06:10:29.632Z,20.13
2023-05-21T06:12:57.721Z,20.13
2023-05-21T06:15:25.933Z,20.19
2023-05-21T06:17:54.135Z,20.33
2023-05-21T06:20:22.341Z,20.47
2023-05-21T06:22:50.305Z,20.65
2023-05-21T06:25:23.265Z,20.77
2023-05-21T06:27:51.696Z,20.75
2023-05-21T06:30:22.585Z,20.82
2023-05-21T06:32:50.643Z,20.86
2023-05-21T06:35:58.875Z,20.90
2023-05-21T06:38:26.985Z,20.98
2023-05-21T06:40:55.255Z,21.10
2023-05-21T06:43:42.709Z,21.23
2023-05-21T06:46:31.144Z,21.39
2023-05-21T06:49:01.117Z,21.48
2023-05-21T06:51:29.001Z,21.53
2023-05-21T06:53:57.252Z,21.55
2023-05-21T06:56:26.626Z,21.60
2023-05-21T06:58:56.159Z,21.68
2023-05-21T07:01:24.537Z,21.85
2023-05-21T07:03:53.123Z,21.98
2023-05-21T07:06:41.860Z,22.10
2023-05-21T07:09:10.411Z,22.27
2023-05-21T07:11:39.045Z,22.39
2023-05-21T07:14:08.945Z,22.49
2023-05-21T07:17:37.993Z,22.61
2023-05-21T07:21:10.076Z,22.92
2023-05-21T07:24:00.677Z,23.24
2023-05-21T07:27:24.256Z,23.40
2023-05-21T07:29:56.266Z,23.53
2023-05-21T07:32:24.677Z,23.68
2023-05-21T07:34:54.351Z,23.84
2023-05-21T07:37:23.112Z,24.05
2023-05-21T07:39:51.293Z,24.31
2023-05-21T07:42:19.407Z,24.51
2023-05-21T07:44:47.477Z,24.63
2023-05-21T07:48:15.981Z,24.70
2023-05-21T07:50:53.415Z,24.82
2023-05-21T07:53:21.843Z,24.88
2023-05-21T07:55:51.460Z,24.94
2023-05-21T07:59:43.209Z,24.92
2023-05-21T08:02:12.480Z,24.94
2023-05-21T08:04:41.489Z,24.97
2023-05-21T08:08:09.920Z,25.10
2023-05-21T08:11:00.594Z,25.18
2023-05-21T08:13:29.036Z,25.23
2023-05-21T08:15:57.706Z,25.24
2023-05-21T08:18:45.789Z,25.21
2023-05-21T08:21:13.930Z,25.16
2023-05-21T08:23:42.088Z,25.29
2023-05-21T08:26:10.791Z,25.51
2023-05-21T08:28:48.285Z,25.78
2023-05-21T08:31:18.752Z,25.96
2023-05-21T08:33:51.673Z,26.05
2023-05-21T08:36:21.410Z,26.21
2023-05-21T08:38:54.963Z,26.41
2023-05-21T08:41:28.908Z,26.55
2023-05-21T08:43:59.834Z,26.67
2023-05-21T08:46:34.616Z,26.75
2023-05-21T08:49:03.211Z,26.79
2023-05-21T08:51:31.544Z,26.84
2023-05-21T08:54:01.815Z,26.90
2023-05-21T08:56:31.691Z,26.89
2023-05-21T09:00:00.553Z,26.89
2023-05-21T09:02:36.496Z,26.90
2023-05-21T09:05:05.726Z,27.06
2023-05-21T09:07:56.714Z,27.15
2023-05-21T09:11:51.143Z,27.25
2023-05-21T09:14:47.655Z,27.45
2023-05-21T09:17:20.277Z,27.52
2023-05-21T09:20:12.351Z,27.61
2023-05-21T09:22:47.257Z,27.60
2023-05-21T09:25:17.102Z,27.72
2023-05-21T09:27:45.256Z,27.78
2023-05-21T09:30:14.677Z,27.86
2023-05-21T09:32:43.888Z,28.05
2023-05-21T09:35:12.669Z,28.24
2023-05-21T09:37:45.724Z,28.26
2023-05-21T09:40:15.579Z,28.33
2023-05-21T09:42:51.762Z,28.42
2023-05-21T09:45:26.283Z,28.46
2023-05-21T09:47:56.425Z,28.49
2023-05-21T09:50:29.585Z,28.47
2023-05-21T09:52:58.408Z,28.48
2023-05-21T09:55:26.766Z,28.55
2023-05-21T09:57:55.031Z,28.53
2023-05-21T10:00:43.104Z,28.57
2023-05-21T10:03:14.544Z,28.63
2023-05-21T10:05:42.769Z,28.66
2023-05-21T10:08:14.404Z,28.62
2023-05-21T10:10:43.167Z,28.52
2023-05-21T10:13:12.960Z,28.47
2023-05-21T10:15:44.219Z,28.46
2023-05-21T10:18:13.771Z,28.51
2023-05-21T10:20:43.108Z,28.58
2023-05-21T10:23:13.072Z,28.65
2023-05-21T10:25:42.005Z,28.75
2023-05-21T10:28:10.750Z,28.94
2023-05-21T10:31:00.149Z,29.10
2023-05-21T10:33:29.400Z,29.25
2023-05-21T10:35:58.799Z,29.26
2023-05-21T10:38:27.977Z,29.17
2023-05-21T10:40:56.650Z,29.09
2023-05-21T10:44:06.360Z,29.06
2023-05-21T10:46:57.879Z,29.17
2023-05-21T10:50:01.533Z,29.32
2023-05-21T10:52:57.152Z,29.11
2023-05-21T10:55:51.398Z,28.87
2023-05-21T10:58:55.440Z,28.72
2023-05-21T11:01:23.688Z,28.58
2023-05-21T11:03:52.086Z,28.66
2023-05-21T11:06:27.465Z,28.79
2023-05-21T11:08:55.968Z,29.04
2023-05-21T11:11:44.142Z,29.19
2023-05-21T11:14:32.777Z,29.17
2023-05-21T11:17:02.897Z,29.19
2023-05-21T11:19:47.408Z,29.28
2023-05-21T11:22:24.957Z,29.29
2023-05-21T11:24:53.993Z,29.18
2023-05-21T11:27:54.475Z,29.07
2023-05-21T11:30:22.549Z,29.00
2023-05-21T11:34:09.639Z,29.09
2023-05-21T11:36:39.048Z,29.26
2023-05-21T11:39:13.415Z,29.40
2023-05-21T11:41:59.498Z,29.52
2023-05-21T11:44:40.024Z,29.51
2023-05-21T11:47:16.609Z,29.38
2023-05-21T11:49:46.028Z,29.23
2023-05-21T11:52:15.783Z,29.09
2023-05-21T11:54:50.736Z,28.98
2023-05-21T11:57:19.627Z,28.95
2023-05-21T11:59:53.779Z,28.88
2023-05-21T12:02:22.934Z,28.91
2023-05-21T12:04:51.669Z,29.01
2023-05-21T12:07:20.366Z,29.10
2023-05-21T12:09:50.250Z,29.28
2023-05-21T12:12:21.588Z,29.49
2023-05-21T12:14:51.426Z,29.57
2023-05-21T12:17:20.019Z,29.66
2023-05-21T12:19:49.769Z,29.74
2023-05-21T12:22:17.986Z,29.82
2023-05-21T12:24:46.545Z,29.86
2023-05-21T12:27:16.991Z,29.90
2023-05-21T12:29:45.642Z,29.88
2023-05-21T12:32:15.006Z,29.79
2023-05-21T12:34:47.216Z,29.77
2023-05-21T12:37:16.229Z,29.74
2023-05-21T12:39:48.590Z,29.67
2023-05-21T12:42:16.838Z,29.60
2023-05-21T12:44:47.093Z,29.59
2023-05-21T12:47:15.273Z,29.59
2023-05-21T12:49:44.980Z,29.56
2023-05-21T12:52:15.035Z,29.47
2023-05-21T12:54:49.330Z,29.32
2023-05-21T12:57:19.495Z,29.24
2023-05-21T13:00:00.325Z,29.32
2023-05-21T13:02:39.013Z,29.38
2023-05-21T13:06:07.560Z,29.31
2023-05-21T13:08:38.198Z,29.25
2023-05-21T13:11:06.197Z,29.20
2023-05-21T13:13:34.761Z,29.09
2023-05-21T13:16:02.870Z,29.01
2023-05-21T13:18:30.852Z,28.91
2023-05-21T13:20:59.099Z,28.79
2023-05-21T13:23:26.986Z,28.72
2023-05-21T13:25:55.202Z,28.72
2023-05-21T13:28:24.686Z,28.71
2023-05-21T13:30:55.058Z,28.74
2023-05-21T13:33:23.199Z,28.78
2023-05-21T13:36:51.675Z,28.87
2023-05-21T13:39:26.730Z,28.99
2023-05-21T13:41:54.804Z,29.07
2023-05-21T13:44:42.758Z,29.08
2023-05-21T13:47:12.129Z,29.07
2023-05-21T13:49:40.322Z,29.01
2023-05-21T13:52:09.728Z,28.89
2023-05-21T13:54:57.784Z,28.78
2023-05-21T13:57:27.030Z,28.69
2023-05-21T13:59:55.648Z,28.56
2023-05-21T14:02:23.659Z,28.41
2023-05-21T14:04:51.852Z,28.24
2023-05-21T14:07:19.915Z,28.11
2023-05-21T14:09:47.961Z,28.02
2023-05-21T14:12:17.056Z,28.00
2023-05-21T14:14:46.114Z,28.07
2023-05-21T14:17:14.142Z,28.14
2023-05-21T14:19:42.080Z,28.17
2023-05-21T14:22:09.994Z,28.14
2023-05-21T14:24:38.072Z,28.08
2023-05-21T14:27:06.127Z,27.99
2023-05-21T14:29:34.235Z,27.91
2023-05-21T14:32:02.435Z,27.87
2023-05-21T14:34:30.793Z,27.85
2023-05-21T14:36:59.236Z,27.82
2023-05-21T14:39:27.490Z,27.76
2023-05-21T14:41:55.651Z,27.66
2023-05-21T14:44:23.804Z,27.55
2023-05-21T14:46:51.974Z,27.52
2023-05-21T14:49:20.139Z,27.46
2023-05-21T14:51:48.213Z,27.31
2023-05-21T14:54:16.024Z,27.28
2023-05-21T14:56:44.038Z,27.18
2023-05-21T14:59:12.996Z,27.03
2023-05-21T15:01:41.299Z,26.96
2023-05-21T15:04:09.669Z,26.87
2023-05-21T15:06:38.052Z,26.78
2023-05-21T15:09:06.026Z,26.75
2023-05-21T15:11:34.517Z,26.67
2023-05-21T15:14:02.531Z,26.58
2023-05-21T15:16:31.405Z,26.45
2023-05-21T15:18:59.509Z,26.43
2023-05-21T15:21:28.213Z,26.39
2023-05-21T15:23:56.403Z,26.33
2023-05-21T15:26:26.435Z,26.26
2023-05-21T15:28:54.414Z,26.16
2023-05-21T15:31:22.580Z,26.06
2023-05-21T15:33:50.783Z,25.99
2023-05-21T15:36:59.972Z,25.97
2023-05-21T15:39:28.695Z,25.99
2023-05-21T15:41:56.769Z,25.96
2023-05-21T15:44:25.640Z,25.89
2023-05-21T15:46:54.944Z,25.78
2023-05-21T15:49:23.177Z,25.75
2023-05-21T15:51:51.678Z,25.67
2023-05-21T15:54:19.700Z,25.58
2023-05-21T15:56:47.787Z,25.50
2023-05-21T15:59:16.410Z,25.41
2023-05-21T16:01:45.067Z,25.36
2023-05-21T16:04:13.610Z,25.31
2023-05-21T16:06:41.711Z,25.25
2023-05-21T16:09:09.932Z,25.21
2023-05-21T16:11:38.018Z,25.16
2023-05-21T16:14:06.231Z,25.11
2023-05-21T16:16:34.365Z,25.06
2023-05-21T16:19:02.719Z,25.02
2023-05-21T16:21:32.006Z,24.98
2023-05-21T16:24:00.278Z,24.93
2023-05-21T16:26:28.864Z,24.89
2023-05-21T16:28:58.817Z,24.85
2023-05-21T16:31:27.572Z,24.77
2023-05-21T16:33:55.968Z,24.73
2023-05-21T16:36:24.080Z,24.70
2023-05-21T16:39:00.971Z,24.66
2023-05-21T16:41:29.225Z,24.63
2023-05-21T16:43:57.249Z,24.60
2023-05-21T16:46:25.316Z,24.57
2023-05-21T16:49:13.389Z,24.51
2023-05-21T16:51:41.553Z,24.41
2023-05-21T16:54:09.568Z,24.31
2023-05-21T16:56:37.700Z,24.25
2023-05-21T16:59:05.777Z,24.18
2023-05-21T17:01:33.902Z,24.08
2023-05-21T17:04:16.778Z,24.01
2023-05-21T17:06:44.758Z,23.96
2023-05-21T17:10:12.939Z,23.94
2023-05-21T17:14:02.120Z,23.88
2023-05-21T17:17:13.054Z,23.69
2023-05-21T17:19:43.240Z,23.67
2023-05-21T17:22:14.389Z,23.61
2023-05-21T17:24:42.868Z,23.55
2023-05-21T17:27:11.268Z,23.46
2023-05-21T17:29:39.688Z,23.38
2023-05-21T17:32:10.297Z,23.30
2023-05-21T17:34:38.926Z,23.24
2023-05-21T17:37:07.087Z,23.17
2023-05-21T17:39:35.235Z,23.12
2023-05-21T17:42:03.492Z,23.07
2023-05-21T17:44:32.174Z,23.02
2023-05-21T17:47:00.437Z,22.94
2023-05-21T17:50:29.337Z,22.86
2023-05-21T17:53:41.236Z,22.68
2023-05-21T17:56:11.393Z,22.62
2023-05-21T17:58:39.544Z,22.56
2023-05-21T18:01:08.126Z,22.51
2023-05-21T18:03:36.269Z,22.43
2023-05-21T18:06:04.982Z,22.37
2023-05-21T18:08:32.903Z,22.31
2023-05-21T18:11:01.707Z,22.28
2023-05-21T18:13:30.107Z,22.24
2023-05-21T18:15:59.035Z,22.18
2023-05-21T18:18:27.132Z,22.12
2023-05-21T18:20:55.446Z,22.06
2023-05-21T18:23:23.544Z,22.00
2023-05-21T18:25:51.522Z,21.95
2023-05-21T18:28:20.235Z,21.92
2023-05-21T18:30:48.471Z,21.87
2023-05-21T18:33:16.999Z,21.83
2023-05-21T18:35:45.269Z,21.81
2023-05-21T18:38:13.460Z,21.77
2023-05-21T18:40:41.692Z,21.74
2023-05-21T18:43:11.005Z,21.71
2023-05-21T18:45:39.109Z,21.67
2023-05-21T18:48:07.348Z,21.63
2023-05-21T18:50:37.253Z,21.58
2023-05-21T18:53:06.051Z,21.53
2023-05-21T18:55:34.801Z,21.48
2023-05-21T18:58:03.213Z,21.44
2023-05-21T19:00:31.990Z,21.38
2023-05-21T19:03:00.598Z,21.33
2023-05-21T19:05:29.842Z,21.29
2023-05-21T19:07:59.389Z,21.24
2023-05-21T19:10:28.147Z,21.10
2023-05-21T19:12:57.366Z,21.16
2023-05-21T19:15:25.393Z,21.11
2023-05-21T19:17:53.420Z,21.05
2023-05-21T19:23:06.838Z,20.91
2023-05-21T19:25:35.845Z,20.85
2023-05-21T19:28:04.033Z,20.80
2023-05-21T19:30:35.043Z,20.75
2023-05-21T19:33:04.181Z,20.68
2023-05-21T19:35:33.373Z,20.61
2023-05-21T19:38:04.110Z,20.54
2023-05-21T19:40:33.698Z,20.46
2023-05-21T19:43:02.937Z,20.39
2023-05-21T19:45:31.090Z,20.33
2023-05-21T19:48:00.024Z,20.29
2023-05-21T19:50:28.935Z,20.25
2023-05-21T19:52:57.398Z,20.22
2023-05-21T19:55:25.545Z,20.21
2023-05-21T19:57:53.634Z,20.18
2023-05-21T20:00:22.457Z,20.17
2023-05-21T20:02:50.639Z,20.15
2023-05-21T20:05:20.318Z,20.12
2023-05-21T20:07:48.411Z,20.06
2023-05-21T20:10:16.601Z,20.00
2023-05-21T20:12:44.730Z,19.95
2023-05-21T20:15:14.536Z,19.92
2023-05-21T20:17:44.249Z,19.89
2023-05-21T20:20:12.966Z,19.84
2023-05-21T20:23:03.466Z,19.80
2023-05-21T20:25:32.042Z,19.74
2023-05-21T20:28:04.064Z,19.69
2023-05-21T20:30:33.480Z,19.64
2023-05-21T20:33:03.077Z,19.58
2023-05-21T20:35:31.269Z,19.55
2023-05-21T20:38:02.700Z,19.54
2023-05-21T20:40:30.801Z,19.51
2023-05-21T20:43:01.768Z,19.43
2023-05-21T20:45:29.987Z,19.44
2023-05-21T20:47:58.037Z,19.42
2023-05-21T20:50:28.761Z,19.37
2023-05-21T20:52:58.279Z,19.34
2023-05-21T20:55:26.563Z,19.32
2023-05-21T20:57:54.659Z,19.29
2023-05-21T21:00:22.966Z,19.27
2023-05-21T21:03:11.753Z,19.26
2023-05-21T21:05:40.003Z,19.22
2023-05-21T21:08:08.345Z,19.19
2023-05-21T21:10:36.919Z,19.15
2023-05-21T21:13:07.028Z,19.10
2023-05-21T21:15:35.568Z,19.04
2023-05-21T21:18:03.996Z,19.00
2023-05-21T21:20:32.208Z,18.95
2023-05-21T21:23:00.221Z,18.93
2023-05-21T21:25:28.462Z,18.87
2023-05-21T21:27:56.436Z,18.80
2023-05-21T21:30:24.425Z,18.72
2023-05-21T21:32:53.314Z,18.67
2023-05-21T21:35:43.585Z,18.63
2023-05-21T21:38:11.586Z,18.58
2023-05-21T21:40:39.833Z,18.53
2023-05-21T21:43:08.215Z,18.48
2023-05-21T21:45:36.484Z,18.44
2023-05-21T21:48:04.676Z,18.39
2023-05-21T21:50:32.744Z,18.36
2023-05-21T21:53:01.267Z,18.34
2023-05-21T21:55:51.102Z,18.31
2023-05-21T21:58:19.300Z,18.27
2023-05-21T22:00:47.479Z,18.22
2023-05-21T22:03:16.583Z,18.19
2023-05-21T22:05:45.066Z,18.16
2023-05-21T22:08:13.117Z,18.14
2023-05-21T22:10:41.754Z,18.12
2023-05-21T22:13:09.934Z,18.08
2023-05-21T22:16:38.507Z,18.06
2023-05-21T22:19:06.666Z,17.99
2023-05-21T22:21:34.757Z,17.94
2023-05-21T22:24:02.822Z,17.90
2023-05-21T22:26:51.049Z,17.86
2023-05-21T22:29:19.056Z,17.82
2023-05-21T22:31:47.150Z,17.79
2023-05-21T22:34:15.249Z,17.77
2023-05-21T22:37:03.279Z,17.74
2023-05-21T22:39:31.353Z,17.72
2023-05-21T22:41:59.642Z,17.69
2023-05-21T22:44:27.968Z,17.67
2023-05-21T22:47:49.302Z,17.64
2023-05-21T22:50:18.520Z,17.59
2023-05-21T22:52:46.836Z,17.57
2023-05-21T22:55:16.580Z,17.52
2023-05-21T22:58:24.645Z,17.48
2023-05-21T23:00:52.602Z,17.38
2023-05-21T23:03:20.749Z,17.32
2023-05-21T23:06:29.526Z,17.27
2023-05-21T23:08:57.804Z,17.23
2023-05-21T23:11:26.704Z,17.22
2023-05-21T23:13:54.711Z,17.23
2023-05-21T23:16:24.184Z,17.22
2023-05-21T23:18:52.525Z,17.22
2023-05-21T23:21:22.037Z,17.21
2023-05-21T23:23:50.136Z,17.20
2023-05-21T23:27:03.607Z,17.19
2023-05-21T23:29:31.533Z,17.17
2023-05-21T23:32:01.288Z,17.15
2023-05-21T23:34:29.368Z,17.12
2023-05-21T23:37:57.850Z,17.11
2023-05-21T23:40:26.251Z,17.07
2023-05-21T23:42:54.324Z,17.02
2023-05-21T23:45:22.496Z,16.97
2023-05-21T23:48:51.298Z,16.93
2023-05-21T23:51:40.458Z,16.86
2023-05-21T23:54:08.617Z,16.83
2023-05-21T23:56:36.564Z,16.83
2023-05-21T23:59:04.526Z,16.84
